createdAt,value
2022-10-05T00:00:33.660Z,12.92
2022-10-05T00:03:10.727Z,13.00
2022-10-05T00:05:39.008Z,12.92
2022-10-05T00:08:17.301Z,13.01
2022-10-05T00:10:46.373Z,12.93
2022-10-05T00:13:24.201Z,12.92
2022-10-05T00:15:58.309Z,12.92
2022-10-05T00:18:27.269Z,12.80
2022-10-05T00:20:55.260Z,12.76
2022-10-05T00:23:26.366Z,12.70
2022-10-05T00:25:53.527Z,12.60
2022-10-05T00:28:28.189Z,12.65
2022-10-05T00:30:59.452Z,12.62
2022-10-05T00:33:28.327Z,12.56
2022-10-05T00:35:55.871Z,12.53
2022-10-05T00:38:23.661Z,12.47
2022-10-05T00:41:16.914Z,12.58
2022-10-05T00:44:05.822Z,12.55
2022-10-05T00:46:57.511Z,12.59
2022-10-05T00:49:43.237Z,12.57
2022-10-05T00:52:49.473Z,12.57
2022-10-05T00:55:22.642Z,12.66
2022-10-05T00:58:08.335Z,12.40
2022-10-05T01:00:50.281Z,12.47
2022-10-05T01:03:38.308Z,12.62
2022-10-05T01:06:23.510Z,12.69
2022-10-05T01:09:15.373Z,12.91
2022-10-05T01:11:54.507Z,12.80
2022-10-05T01:14:45.961Z,12.72
2022-10-05T01:17:24.724Z,12.59
2022-10-05T01:20:27.305Z,12.63
2022-10-05T01:23:16.148Z,12.59
2022-10-05T01:25:49.628Z,12.56
2022-10-05T01:28:28.602Z,12.51
2022-10-05T01:31:33.038Z,12.50
2022-10-05T01:34:11.662Z,12.38
2022-10-05T01:36:45.100Z,12.32
2022-10-05T01:39:33.739Z,12.34
2022-10-05T01:42:13.164Z,12.46
2022-10-05T01:44:48.840Z,12.48
2022-10-05T01:47:44.793Z,12.51
2022-10-05T01:50:44.087Z,12.58
2022-10-05T01:53:40.372Z,12.66
2022-10-05T01:56:30.775Z,12.63
2022-10-05T01:59:24.629Z,12.60
2022-10-05T02:02:01.652Z,12.54
2022-10-05T02:05:02.309Z,12.53
2022-10-05T02:07:46.060Z,12.49
2022-10-05T02:10:19.141Z,12.49
2022-10-05T02:12:51.597Z,12.44
2022-10-05T02:15:26.554Z,12.45
2022-10-05T02:17:59.905Z,12.45
2022-10-05T02:20:33.609Z,12.42
2022-10-05T02:23:09.805Z,12.42
2022-10-05T02:25:39.988Z,12.45
2022-10-05T02:28:16.941Z,12.49
2022-10-05T02:31:11.856Z,12.53
2022-10-05T02:33:39.108Z,12.39
2022-10-05T02:36:35.262Z,12.44
2022-10-05T02:39:06.432Z,12.52
2022-10-05T02:41:33.541Z,12.59
2022-10-05T02:44:32.331Z,12.67
2022-10-05T02:46:59.720Z,12.62
2022-10-05T02:50:00.808Z,12.62
2022-10-05T02:52:44.337Z,12.63
2022-10-05T02:55:35.056Z,12.71
2022-10-05T02:58:08.443Z,12.62
2022-10-05T03:01:05.163Z,12.72
2022-10-05T03:03:45.092Z,12.77
2022-10-05T03:06:35.337Z,12.81
2022-10-05T03:09:05.566Z,12.73
2022-10-05T03:11:51.853Z,12.75
2022-10-05T03:14:42.597Z,12.79
2022-10-05T03:17:15.817Z,12.96
2022-10-05T03:20:03.556Z,13.09
2022-10-05T03:22:51.383Z,13.22
2022-10-05T03:25:53.994Z,13.32
2022-10-05T03:28:40.157Z,13.21
2022-10-05T03:31:31.606Z,13.03
2022-10-05T03:34:22.162Z,13.09
2022-10-05T03:36:55.438Z,12.98
2022-10-05T03:39:37.685Z,12.99
2022-10-05T03:42:09.585Z,12.83
2022-10-05T03:44:55.418Z,12.78
2022-10-05T03:47:51.717Z,12.78
2022-10-05T03:50:19.212Z,12.75
2022-10-05T03:52:56.824Z,12.73
2022-10-05T03:55:46.323Z,12.80
2022-10-05T03:58:26.351Z,12.80
2022-10-05T04:00:59.199Z,12.81
2022-10-05T04:03:35.018Z,12.83
2022-10-05T04:06:14.112Z,12.83
2022-10-05T04:09:03.054Z,12.87
2022-10-05T04:11:37.051Z,12.83
2022-10-05T04:14:16.220Z,12.81
2022-10-05T04:16:58.549Z,12.86
2022-10-05T04:19:45.029Z,12.90
2022-10-05T04:22:22.804Z,12.99
2022-10-05T04:25:01.533Z,13.16
2022-10-05T04:27:39.807Z,13.26
2022-10-05T04:30:19.543Z,13.27
2022-10-05T04:32:58.199Z,13.29
2022-10-05T04:35:52.598Z,13.38
2022-10-05T04:38:38.990Z,13.38
2022-10-05T04:41:28.099Z,13.37
2022-10-05T04:44:07.673Z,13.37
2022-10-05T04:47:03.549Z,13.40
2022-10-05T04:49:55.542Z,13.30
2022-10-05T04:52:41.306Z,13.35
2022-10-05T04:55:31.834Z,13.49
2022-10-05T04:58:42.535Z,13.52
2022-10-05T05:01:48.328Z,13.54
2022-10-05T05:04:40.660Z,13.63
2022-10-05T05:07:37.350Z,13.65
2022-10-05T05:10:33.050Z,13.69
2022-10-05T05:13:31.093Z,13.75
2022-10-05T05:16:27.621Z,13.88
2022-10-05T05:19:13.238Z,13.86
2022-10-05T05:21:59.079Z,13.94
2022-10-05T05:24:39.470Z,14.00
2022-10-05T05:27:38.949Z,13.99
2022-10-05T05:30:22.090Z,13.99
2022-10-05T05:33:03.479Z,14.04
2022-10-05T05:35:57.968Z,14.13
2022-10-05T05:38:50.621Z,14.13
2022-10-05T05:41:39.588Z,14.19
2022-10-05T05:44:28.212Z,14.23
2022-10-05T05:47:13.662Z,14.33
2022-10-05T05:50:09.340Z,14.33
2022-10-05T05:52:47.681Z,14.39
2022-10-05T05:55:33.371Z,14.62
2022-10-05T05:58:14.352Z,14.75
2022-10-05T06:01:20.206Z,14.93
2022-10-05T06:03:59.608Z,14.98
2022-10-05T06:06:38.549Z,15.04
2022-10-05T06:09:24.184Z,15.07
2022-10-05T06:12:14.630Z,15.18
2022-10-05T06:15:26.096Z,15.27
2022-10-05T06:17:57.460Z,15.24
2022-10-05T06:20:39.669Z,15.31
2022-10-05T06:23:18.884Z,15.32
2022-10-05T06:26:09.749Z,15.45
2022-10-05T06:28:38.694Z,15.57
2022-10-05T06:31:30.024Z,15.77
2022-10-05T06:34:05.776Z,15.75
2022-10-05T06:36:59.434Z,15.79
2022-10-05T06:39:47.248Z,15.82
2022-10-05T06:42:32.677Z,15.98
2022-10-05T06:45:44.886Z,16.07
2022-10-05T06:48:36.254Z,16.22
2022-10-05T06:51:46.706Z,16.17
2022-10-05T06:54:26.049Z,16.33
2022-10-05T06:57:17.282Z,16.32
2022-10-05T06:59:44.484Z,16.34
2022-10-05T07:02:29.812Z,16.50
2022-10-05T07:05:39.156Z,16.59
2022-10-05T07:08:15.855Z,16.70
2022-10-05T07:11:05.520Z,16.81
2022-10-05T07:13:39.469Z,16.83
2022-10-05T07:16:10.461Z,16.81
2022-10-05T07:18:44.077Z,16.74
2022-10-05T07:21:14.570Z,16.83
2022-10-05T07:23:46.413Z,17.01
2022-10-05T07:26:33.247Z,17.12
2022-10-05T07:29:20.343Z,17.08
2022-10-05T07:32:12.383Z,17.38
2022-10-05T07:34:48.101Z,17.46
2022-10-05T07:37:55.719Z,17.54
2022-10-05T07:40:58.605Z,17.70
2022-10-05T07:44:05.014Z,17.77
2022-10-05T07:46:45.890Z,17.90
2022-10-05T07:49:39.522Z,18.02
2022-10-05T07:52:14.185Z,18.08
2022-10-05T07:55:00.278Z,18.22
2022-10-05T07:57:51.940Z,18.29
2022-10-05T08:00:20.722Z,18.38
2022-10-05T08:03:14.897Z,18.45
2022-10-05T08:05:47.093Z,18.54
2022-10-05T08:08:31.674Z,18.59
2022-10-05T08:11:11.293Z,18.61
2022-10-05T08:13:41.742Z,18.58
2022-10-05T08:16:15.674Z,18.48
2022-10-05T08:18:51.289Z,18.49
2022-10-05T08:21:27.971Z,18.52
2022-10-05T08:23:58.280Z,18.62
2022-10-05T08:27:02.820Z,18.84
2022-10-05T08:29:37.587Z,18.81
2022-10-05T08:32:26.651Z,18.87
2022-10-05T08:35:12.699Z,18.77
2022-10-05T08:37:42.520Z,18.81
2022-10-05T08:40:18.938Z,18.94
2022-10-05T08:43:10.452Z,18.94
2022-10-05T08:45:49.768Z,18.96
2022-10-05T08:48:23.322Z,18.95
2022-10-05T08:50:59.612Z,19.03
2022-10-05T08:54:02.356Z,19.20
2022-10-05T08:56:35.446Z,19.31
2022-10-05T08:59:17.874Z,19.38
2022-10-05T09:02:23.380Z,19.56
2022-10-05T09:05:21.174Z,19.65
2022-10-05T09:08:27.305Z,19.70
2022-10-05T09:11:19.388Z,19.79
2022-10-05T09:14:17.577Z,19.71
2022-10-05T09:16:51.642Z,19.68
2022-10-05T09:19:52.941Z,19.79
2022-10-05T09:22:54.796Z,19.83
2022-10-05T09:25:58.036Z,19.84
2022-10-05T09:28:40.384Z,19.88
2022-10-05T09:31:19.589Z,20.02
2022-10-05T09:34:13.257Z,19.93
2022-10-05T09:37:02.935Z,20.08
2022-10-05T09:39:36.190Z,20.19
2022-10-05T09:42:28.920Z,20.26
2022-10-05T09:45:21.566Z,20.31
2022-10-05T09:48:10.217Z,20.30
2022-10-05T09:50:41.845Z,20.22
2022-10-05T09:53:38.808Z,20.16
2022-10-05T09:59:13.384Z,19.94
2022-10-05T10:02:35.217Z,20.00
2022-10-05T10:05:09.537Z,19.75
2022-10-05T10:08:05.857Z,19.77
2022-10-05T10:10:53.034Z,19.73
2022-10-05T10:13:43.246Z,19.77
2022-10-05T10:16:27.876Z,19.78
2022-10-05T10:19:20.077Z,19.82
2022-10-05T10:21:56.349Z,19.81
2022-10-05T10:24:57.325Z,19.89
2022-10-05T10:27:44.654Z,19.90
2022-10-05T10:30:41.279Z,19.93
2022-10-05T10:33:21.141Z,19.72
2022-10-05T10:36:13.775Z,19.56
2022-10-05T10:38:50.377Z,19.60
2022-10-05T10:41:52.609Z,19.53
2022-10-05T10:44:35.029Z,19.51
2022-10-05T10:47:13.675Z,19.59
2022-10-05T10:50:14.835Z,19.58
2022-10-05T10:53:02.002Z,19.60
2022-10-05T10:55:48.072Z,19.68
2022-10-05T10:58:37.010Z,19.52
2022-10-05T11:01:29.361Z,19.46
2022-10-05T11:04:09.944Z,19.42
2022-10-05T11:07:03.080Z,19.50
2022-10-05T11:09:34.854Z,19.61
2022-10-05T11:12:22.153Z,19.68
2022-10-05T11:15:11.181Z,19.89
2022-10-05T11:17:59.965Z,19.88
2022-10-05T11:20:39.291Z,19.85
2022-10-05T11:23:25.345Z,19.80
2022-10-05T11:26:10.644Z,19.76
2022-10-05T11:29:18.095Z,19.92
2022-10-05T11:32:29.990Z,20.08
2022-10-05T11:35:00.136Z,20.14
2022-10-05T11:37:46.367Z,20.14
2022-10-05T11:40:33.427Z,20.08
2022-10-05T11:43:22.971Z,20.07
2022-10-05T11:46:08.582Z,20.17
2022-10-05T11:48:54.433Z,20.10
2022-10-05T11:51:35.052Z,20.00
2022-10-05T11:54:10.013Z,20.08
2022-10-05T11:56:40.801Z,20.00
2022-10-05T11:59:35.447Z,20.27
2022-10-05T12:02:48.437Z,20.36
2022-10-05T12:05:42.155Z,20.23
2022-10-05T12:08:17.150Z,20.02
2022-10-05T12:10:58.866Z,19.94
2022-10-05T12:13:51.566Z,19.84
2022-10-05T12:17:01.309Z,19.98
2022-10-05T12:19:44.334Z,19.68
2022-10-05T12:22:49.791Z,19.67
2022-10-05T12:25:37.953Z,19.63
2022-10-05T12:28:11.491Z,19.55
2022-10-05T12:30:57.933Z,19.62
2022-10-05T12:33:41.204Z,19.69
2022-10-05T12:36:15.283Z,19.80
2022-10-05T12:39:17.272Z,20.01
2022-10-05T12:41:54.924Z,20.16
2022-10-05T12:44:50.158Z,20.12
2022-10-05T12:47:39.081Z,20.20
2022-10-05T12:50:12.353Z,20.20
2022-10-05T12:53:06.109Z,20.27
2022-10-05T12:55:42.458Z,20.27
2022-10-05T12:58:37.294Z,20.30
2022-10-05T13:01:19.137Z,20.33
2022-10-05T13:04:04.091Z,20.26
2022-10-05T13:06:40.135Z,20.09
2022-10-05T13:09:30.592Z,20.04
2022-10-05T13:12:04.242Z,19.97
2022-10-05T13:14:53.842Z,19.97
2022-10-05T13:17:23.986Z,19.88
2022-10-05T13:20:25.198Z,19.88
2022-10-05T13:23:18.590Z,19.96
2022-10-05T13:26:11.077Z,20.09
2022-10-05T13:28:50.713Z,20.19
2022-10-05T13:31:27.144Z,20.13
2022-10-05T13:34:17.949Z,20.26
2022-10-05T13:37:31.972Z,20.13
2022-10-05T13:40:25.041Z,20.20
2022-10-05T13:43:11.937Z,20.21
2022-10-05T13:45:52.566Z,20.20
2022-10-05T13:49:08.453Z,20.33
2022-10-05T13:52:10.891Z,20.34
2022-10-05T13:55:12.904Z,20.35
2022-10-05T13:57:59.899Z,20.41
2022-10-05T14:00:28.101Z,20.35
2022-10-05T14:02:57.930Z,20.28
2022-10-05T14:05:31.360Z,20.32
2022-10-05T14:08:04.330Z,20.27
2022-10-05T14:10:38.782Z,20.24
2022-10-05T14:13:43.535Z,20.30
2022-10-05T14:16:13.886Z,20.28
2022-10-05T14:18:55.303Z,20.25
2022-10-05T14:21:30.492Z,20.24
2022-10-05T14:24:44.616Z,20.21
2022-10-05T14:27:22.961Z,20.06
2022-10-05T14:30:13.311Z,20.05
2022-10-05T14:32:59.272Z,19.93
2022-10-05T14:35:30.629Z,19.86
2022-10-05T14:38:02.402Z,19.84
2022-10-05T14:40:34.287Z,19.78
2022-10-05T14:43:14.529Z,19.73
2022-10-05T14:45:58.196Z,19.74
2022-10-05T14:48:28.773Z,19.59
2022-10-05T14:51:03.546Z,19.44
2022-10-05T14:53:40.003Z,19.40
2022-10-05T14:56:40.695Z,19.34
2022-10-05T14:59:26.242Z,19.39
2022-10-05T15:02:35.426Z,19.43
2022-10-05T15:05:25.667Z,19.31
2022-10-05T15:07:57.671Z,19.27
2022-10-05T15:10:31.687Z,19.28
2022-10-05T15:13:17.258Z,19.27
2022-10-05T15:15:55.697Z,19.04
2022-10-05T15:18:37.534Z,19.00
2022-10-05T15:21:23.910Z,19.05
2022-10-05T15:24:06.309Z,18.96
2022-10-05T15:26:39.270Z,18.94
2022-10-05T15:29:27.433Z,18.86
2022-10-05T15:32:08.969Z,18.84
2022-10-05T15:35:04.189Z,18.80
2022-10-05T15:37:43.275Z,18.65
2022-10-05T15:40:37.000Z,18.70
2022-10-05T15:43:16.247Z,18.50
2022-10-05T15:46:10.674Z,18.52
2022-10-05T15:48:56.199Z,18.53
2022-10-05T15:51:51.192Z,18.58
2022-10-05T15:54:43.559Z,18.52
2022-10-05T15:57:32.782Z,18.34
2022-10-05T16:00:12.549Z,18.37
2022-10-05T16:02:48.954Z,18.36
2022-10-05T16:05:16.761Z,18.29
2022-10-05T16:08:10.926Z,18.17
2022-10-05T16:10:44.224Z,18.05
2022-10-05T16:13:14.459Z,18.11
2022-10-05T16:15:50.213Z,18.12
2022-10-05T16:18:41.590Z,18.09
2022-10-05T16:21:22.831Z,17.97
2022-10-05T16:23:59.529Z,17.84
2022-10-05T16:26:26.661Z,17.67
2022-10-05T16:29:09.837Z,17.63
2022-10-05T16:31:54.535Z,17.56
2022-10-05T16:34:54.478Z,17.60
2022-10-05T16:37:38.012Z,17.69
2022-10-05T16:40:08.500Z,17.60
2022-10-05T16:42:47.816Z,17.77
2022-10-05T16:45:27.197Z,17.85
2022-10-05T16:48:17.812Z,17.84
2022-10-05T16:51:25.520Z,17.96
2022-10-05T16:54:20.347Z,17.95
2022-10-05T16:57:10.251Z,17.86
2022-10-05T16:59:55.739Z,17.83
2022-10-05T17:02:42.034Z,17.80
2022-10-05T17:05:41.649Z,17.80
2022-10-05T17:08:36.861Z,17.86
2022-10-05T17:11:41.289Z,17.89
2022-10-05T17:14:16.329Z,17.82
2022-10-05T17:17:05.557Z,17.87
2022-10-05T17:19:57.113Z,17.86
2022-10-05T17:22:29.562Z,17.70
2022-10-05T17:25:19.447Z,17.75
2022-10-05T17:28:24.573Z,17.82
2022-10-05T17:31:15.043Z,17.83
2022-10-05T17:34:00.741Z,17.87
2022-10-05T17:36:43.140Z,17.81
2022-10-05T17:39:15.177Z,17.77
2022-10-05T17:41:43.430Z,17.63
2022-10-05T17:44:14.169Z,17.65
2022-10-05T17:46:46.000Z,17.55
2022-10-05T17:49:37.989Z,17.65
2022-10-05T17:52:40.928Z,17.64
2022-10-05T17:55:34.307Z,17.76
2022-10-05T17:58:24.566Z,17.78
2022-10-05T18:01:25.418Z,17.78
2022-10-05T18:03:52.950Z,17.65
2022-10-05T18:06:26.647Z,17.68
2022-10-05T18:09:13.029Z,17.72
2022-10-05T18:11:48.210Z,17.67
2022-10-05T18:14:23.483Z,17.69
2022-10-05T18:17:11.398Z,17.75
2022-10-05T18:19:39.818Z,17.69
2022-10-05T18:22:28.337Z,17.77
2022-10-05T18:25:27.371Z,17.80
2022-10-05T18:28:29.059Z,17.77
2022-10-05T18:31:04.511Z,17.60
2022-10-05T18:33:49.461Z,17.46
2022-10-05T18:36:37.866Z,17.52
2022-10-05T18:39:27.147Z,17.30
2022-10-05T18:42:20.862Z,17.26
2022-10-05T18:45:02.045Z,17.33
2022-10-05T18:48:05.107Z,17.25
2022-10-05T18:50:44.562Z,17.24
2022-10-05T18:53:30.740Z,17.26
2022-10-05T18:56:13.998Z,17.04
2022-10-05T18:58:54.508Z,17.09
2022-10-05T19:01:47.255Z,16.93
2022-10-05T19:04:37.579Z,16.91
2022-10-05T19:07:21.801Z,16.75
2022-10-05T19:09:52.263Z,16.71
2022-10-05T19:12:41.739Z,16.81
2022-10-05T19:15:35.278Z,16.83
2022-10-05T19:18:33.570Z,16.75
2022-10-05T19:21:17.150Z,16.76
2022-10-05T19:24:11.937Z,16.83
2022-10-05T19:27:01.142Z,16.80
2022-10-05T19:29:34.470Z,16.76
2022-10-05T19:32:16.871Z,16.65
2022-10-05T19:34:54.337Z,16.60
2022-10-05T19:37:31.263Z,16.52
2022-10-05T19:40:11.527Z,16.38
2022-10-05T19:42:59.943Z,16.34
2022-10-05T19:45:29.641Z,16.19
2022-10-05T19:48:09.088Z,16.16
2022-10-05T19:50:40.794Z,16.07
2022-10-05T19:53:15.396Z,16.02
2022-10-05T19:55:45.898Z,15.87
2022-10-05T19:58:26.851Z,15.72
2022-10-05T20:01:03.460Z,15.65
2022-10-05T20:03:38.152Z,15.55
2022-10-05T20:06:08.490Z,15.49
2022-10-05T20:08:44.511Z,15.35
2022-10-05T20:11:23.435Z,15.19
2022-10-05T20:13:53.568Z,15.42
2022-10-05T20:16:50.617Z,15.36
2022-10-05T20:19:56.064Z,15.46
2022-10-05T20:22:26.664Z,15.32
2022-10-05T20:24:56.966Z,15.18
2022-10-05T20:27:44.870Z,15.33
2022-10-05T20:30:19.022Z,15.19
2022-10-05T20:32:50.965Z,15.25
2022-10-05T20:35:21.202Z,15.15
2022-10-05T20:37:50.333Z,15.02
2022-10-05T20:40:20.095Z,15.01
2022-10-05T20:42:48.435Z,15.09
2022-10-05T20:45:16.116Z,15.06
2022-10-05T20:47:43.499Z,14.91
2022-10-05T20:50:11.459Z,14.84
2022-10-05T20:52:38.997Z,14.75
2022-10-05T20:55:09.128Z,14.71
2022-10-05T20:57:41.961Z,14.68
2022-10-05T21:00:11.631Z,14.64
2022-10-05T21:02:39.703Z,14.64
2022-10-05T21:05:08.041Z,14.57
2022-10-05T21:07:35.681Z,14.54
2022-10-05T21:10:03.939Z,14.68
2022-10-05T21:12:34.117Z,14.68
2022-10-05T21:15:01.848Z,14.67
2022-10-05T21:17:31.807Z,14.65
2022-10-05T21:20:00.100Z,14.60
2022-10-05T21:22:27.607Z,14.52
2022-10-05T21:24:55.955Z,14.48
2022-10-05T21:27:23.943Z,14.53
2022-10-05T21:29:51.711Z,14.46
2022-10-05T21:32:19.069Z,14.45
2022-10-05T21:34:46.406Z,14.53
2022-10-05T21:37:15.582Z,14.42
2022-10-05T21:39:43.014Z,14.32
2022-10-05T21:42:11.012Z,14.31
2022-10-05T21:44:41.582Z,14.28
2022-10-05T21:47:09.653Z,14.25
2022-10-05T21:49:37.737Z,14.27
2022-10-05T21:52:05.676Z,14.32
2022-10-05T21:54:34.214Z,14.22
2022-10-05T21:57:02.974Z,14.35
2022-10-05T21:59:34.208Z,14.19
2022-10-05T22:02:02.495Z,14.37
2022-10-05T22:04:29.986Z,14.16
2022-10-05T22:06:57.782Z,14.11
2022-10-05T22:09:25.051Z,14.08
2022-10-05T22:11:52.399Z,13.93
2022-10-05T22:14:19.621Z,14.03
2022-10-05T22:16:47.445Z,13.84
2022-10-05T22:19:18.851Z,13.81
2022-10-05T22:21:46.087Z,13.81
2022-10-05T22:24:14.659Z,13.73
2022-10-05T22:26:45.509Z,13.67
2022-10-05T22:29:14.977Z,13.73
2022-10-05T22:31:42.640Z,13.67
2022-10-05T22:34:09.947Z,13.50
2022-10-05T22:36:37.751Z,13.39
2022-10-05T22:39:05.104Z,13.34
2022-10-05T22:41:32.395Z,13.29
2022-10-05T22:44:00.618Z,13.29
2022-10-05T22:46:28.120Z,13.18
2022-10-05T22:48:55.690Z,13.02
2022-10-05T22:51:22.951Z,13.02
2022-10-05T22:53:51.050Z,12.85
2022-10-05T22:56:18.784Z,12.75
2022-10-05T22:58:46.995Z,12.66
2022-10-05T23:01:17.254Z,12.57
2022-10-05T23:03:45.271Z,12.47
2022-10-05T23:06:16.223Z,12.49
2022-10-05T23:08:45.423Z,12.44
2022-10-05T23:11:18.104Z,12.54
2022-10-05T23:13:45.733Z,12.55
2022-10-05T23:16:19.776Z,12.49
2022-10-05T23:18:52.450Z,12.39
2022-10-05T23:21:22.006Z,12.29
2022-10-05T23:23:53.087Z,12.19
2022-10-05T23:26:22.919Z,12.18
2022-10-05T23:28:53.713Z,12.07
2022-10-05T23:31:24.038Z,12.10
2022-10-05T23:33:52.985Z,11.99
2022-10-05T23:36:31.583Z,11.99
2022-10-05T23:38:59.452Z,11.94
2022-10-05T23:41:26.932Z,11.92
2022-10-05T23:43:57.335Z,11.92
2022-10-05T23:46:25.044Z,11.98
2022-10-05T23:48:53.795Z,11.99
2022-10-05T23:51:21.610Z,11.96
2022-10-05T23:53:48.826Z,11.91
2022-10-05T23:56:16.135Z,11.85
2022-10-05T23:58:43.431Z,11.88
